Terminal Aerodrome Forecast
Issued by NWS Shreveport, LA

Home | Current Version | Previous Version | Text Only | Print | Product List | Glossary On
Versions: 1 2 3 4 5 6 7 8 9 10 11 12 13 14 15 16 17 18 19 20 21 22 23 24 25 26 27 28 29
000
FTUS44 KSHV 241145
TAFLFK
TAF
KLFK 241145Z 2412/2512 17012G18KT P6SM SCT020 OVC040
      TEMPO 2412/2415 17014G22KT BKN020
     FM241500 18016G25KT P6SM BKN035 OVC045
     FM242300 18018G28KT P6SM VCTS BKN040 OVC050CB
     FM250100 VRB20G30KT 3SM TSRA OVC045CB
     FM250600 21013G20KT P6SM SCT040 BKN250=

USA.gov is the U.S. government's official web portal to all federal, state and local government web resources and services.